createdAt,value
2023-05-25T00:01:01.136Z,24.47
2023-05-25T00:03:31.836Z,24.45
2023-05-25T00:06:01.851Z,24.46
2023-05-25T00:08:30.035Z,24.43
2023-05-25T00:10:57.311Z,24.44
2023-05-25T00:13:24.628Z,24.42
2023-05-25T00:15:51.982Z,24.44
2023-05-25T00:18:19.106Z,24.41
2023-05-25T00:20:47.876Z,24.39
2023-05-25T00:23:16.646Z,24.33
2023-05-25T00:25:43.964Z,24.31
2023-05-25T00:28:12.258Z,24.29
2023-05-25T00:30:39.496Z,24.30
2023-05-25T00:33:08.896Z,24.26
2023-05-25T00:35:36.896Z,24.25
2023-05-25T00:38:03.984Z,24.31
2023-05-25T00:40:31.295Z,24.29
2023-05-25T00:43:00.467Z,24.28
2023-05-25T00:45:27.664Z,24.20
2023-05-25T00:47:54.934Z,24.25
2023-05-25T00:50:38.383Z,24.18
2023-05-25T00:53:07.152Z,24.17
2023-05-25T00:55:39.224Z,24.16
2023-05-25T00:58:08.779Z,24.05
2023-05-25T01:01:04.485Z,23.96
2023-05-25T01:03:54.368Z,23.97
2023-05-25T01:06:39.673Z,23.87
2023-05-25T01:09:30.213Z,23.93
2023-05-25T01:12:15.497Z,23.89
2023-05-25T01:14:50.119Z,23.91
2023-05-25T01:17:23.748Z,23.87
2023-05-25T01:20:09.048Z,23.88
2023-05-25T01:22:50.697Z,23.85
2023-05-25T01:25:37.017Z,23.88
2023-05-25T01:28:16.492Z,23.81
2023-05-25T01:30:57.020Z,23.86
2023-05-25T01:33:32.687Z,23.83
2023-05-25T01:36:07.159Z,23.95
2023-05-25T01:38:43.308Z,23.92
2023-05-25T01:41:17.017Z,23.99
2023-05-25T01:43:59.367Z,24.01
2023-05-25T01:46:42.250Z,24.05
2023-05-25T01:49:42.703Z,24.11
2023-05-25T01:52:25.793Z,24.10
2023-05-25T01:55:31.682Z,24.09
2023-05-25T01:58:12.753Z,24.09
2023-05-25T02:01:08.735Z,23.94
2023-05-25T02:03:49.786Z,24.08
2023-05-25T02:06:33.943Z,24.08
2023-05-25T02:09:16.192Z,24.07
2023-05-25T02:11:57.358Z,24.13
2023-05-25T02:14:40.250Z,24.12
2023-05-25T02:17:20.066Z,24.04
2023-05-25T02:19:56.945Z,24.01
2023-05-25T02:22:38.612Z,24.03
2023-05-25T02:25:19.789Z,23.98
2023-05-25T02:27:58.130Z,23.96
2023-05-25T02:30:39.451Z,23.96
2023-05-25T02:33:21.649Z,23.97
2023-05-25T02:36:03.652Z,23.92
2023-05-25T02:38:42.929Z,23.97
2023-05-25T02:41:20.664Z,24.05
2023-05-25T02:43:54.618Z,24.03
2023-05-25T02:46:40.161Z,24.03
2023-05-25T02:49:17.772Z,24.05
2023-05-25T02:52:06.614Z,23.95
2023-05-25T02:54:37.866Z,23.98
2023-05-25T02:57:15.208Z,23.96
2023-05-25T02:59:58.303Z,23.85
2023-05-25T03:02:26.046Z,23.79
2023-05-25T03:04:54.081Z,23.72
2023-05-25T03:07:21.874Z,23.70
2023-05-25T03:09:49.256Z,23.67
2023-05-25T03:12:16.491Z,23.54
2023-05-25T03:14:43.786Z,23.47
2023-05-25T03:17:11.369Z,23.51
2023-05-25T03:19:38.446Z,23.49
2023-05-25T03:22:05.904Z,23.36
2023-05-25T03:24:34.574Z,23.32
2023-05-25T03:27:03.533Z,23.35
2023-05-25T03:29:33.744Z,23.32
2023-05-25T03:32:03.166Z,23.31
2023-05-25T03:34:34.854Z,23.28
2023-05-25T03:37:03.082Z,23.25
2023-05-25T03:39:32.680Z,23.29
2023-05-25T03:42:00.296Z,23.24
2023-05-25T03:44:27.324Z,23.30
2023-05-25T03:46:54.620Z,23.29
2023-05-25T03:49:21.794Z,23.19
2023-05-25T03:51:48.853Z,23.13
2023-05-25T03:54:17.040Z,23.14
2023-05-25T03:56:44.102Z,23.02
2023-05-25T03:59:11.182Z,23.03
2023-05-25T04:01:39.052Z,23.02
2023-05-25T04:04:06.736Z,22.96
2023-05-25T04:06:34.176Z,22.94
2023-05-25T04:09:01.623Z,22.90
2023-05-25T04:11:29.377Z,22.84
2023-05-25T04:13:56.893Z,22.72
2023-05-25T04:16:26.924Z,22.75
2023-05-25T04:18:56.040Z,22.54
2023-05-25T04:21:23.848Z,22.51
2023-05-25T04:23:51.310Z,22.45
2023-05-25T04:26:18.739Z,22.39
2023-05-25T04:28:48.535Z,22.45
2023-05-25T04:31:29.467Z,22.32
2023-05-25T04:34:29.899Z,22.41
2023-05-25T04:37:13.806Z,22.35
2023-05-25T04:39:41.153Z,22.38
2023-05-25T04:42:09.333Z,22.36
2023-05-25T04:44:40.480Z,22.24
2023-05-25T04:47:08.227Z,22.26
2023-05-25T04:49:36.520Z,22.16
2023-05-25T04:52:04.150Z,22.17
2023-05-25T04:54:31.820Z,22.22
2023-05-25T04:57:03.207Z,22.16
2023-05-25T04:59:31.855Z,22.12
2023-05-25T05:02:00.765Z,22.08
2023-05-25T05:04:28.087Z,22.07
2023-05-25T05:06:57.422Z,22.09
2023-05-25T05:09:28.798Z,22.03
2023-05-25T05:11:58.036Z,21.94
2023-05-25T05:14:25.543Z,21.97
2023-05-25T05:16:53.357Z,21.82
2023-05-25T05:19:24.631Z,21.89
2023-05-25T05:21:52.644Z,21.78
2023-05-25T05:24:20.822Z,21.88
2023-05-25T05:26:56.123Z,21.80
2023-05-25T05:29:29.551Z,21.87
2023-05-25T05:31:57.697Z,21.83
2023-05-25T05:34:25.824Z,21.83
2023-05-25T05:36:58.570Z,21.90
2023-05-25T05:39:29.726Z,21.90
2023-05-25T05:41:56.931Z,21.92
2023-05-25T05:44:29.034Z,21.93
2023-05-25T05:47:01.337Z,21.92
2023-05-25T05:49:30.844Z,21.90
2023-05-25T05:51:59.619Z,21.86
2023-05-25T05:54:30.937Z,21.97
2023-05-25T05:57:02.590Z,22.04
2023-05-25T05:59:29.713Z,21.94
2023-05-25T06:01:57.279Z,22.01
2023-05-25T06:04:28.895Z,22.05
2023-05-25T06:06:59.216Z,22.04
2023-05-25T06:09:29.576Z,22.06
2023-05-25T06:12:12.482Z,22.04
2023-05-25T06:14:52.702Z,22.07
2023-05-25T06:17:28.729Z,22.02
2023-05-25T06:20:06.841Z,22.10
2023-05-25T06:22:40.479Z,22.11
2023-05-25T06:25:16.629Z,22.09
2023-05-25T06:27:44.377Z,22.02
2023-05-25T06:30:12.946Z,22.05
2023-05-25T06:32:46.325Z,22.05
2023-05-25T06:35:19.946Z,22.09
2023-05-25T06:37:50.992Z,22.10
2023-05-25T06:40:20.838Z,22.04
2023-05-25T06:42:48.050Z,21.96
2023-05-25T06:45:34.098Z,22.04
2023-05-25T06:48:01.534Z,22.00
2023-05-25T06:50:28.792Z,22.00
2023-05-25T06:52:56.004Z,21.95
2023-05-25T06:55:23.226Z,21.80
2023-05-25T06:57:50.709Z,21.75
2023-05-25T07:00:21.739Z,21.84
2023-05-25T07:02:48.935Z,21.73
2023-05-25T07:05:16.166Z,21.69
2023-05-25T07:07:49.014Z,21.70
2023-05-25T07:10:20.478Z,21.77
2023-05-25T07:12:50.684Z,21.70
2023-05-25T07:15:21.904Z,21.75
2023-05-25T07:17:52.021Z,21.79
2023-05-25T07:20:24.390Z,21.70
2023-05-25T07:22:53.584Z,21.79
2023-05-25T07:25:27.238Z,21.77
2023-05-25T07:28:10.714Z,21.82
2023-05-25T07:30:58.503Z,21.82
2023-05-25T07:33:31.272Z,21.87
2023-05-25T07:35:58.391Z,21.86
2023-05-25T07:38:25.676Z,21.71
2023-05-25T07:41:00.039Z,21.79
2023-05-25T07:43:29.818Z,21.85
2023-05-25T07:45:57.011Z,21.85
2023-05-25T07:48:31.620Z,21.88
2023-05-25T07:51:01.965Z,22.00
2023-05-25T07:53:36.127Z,22.01
2023-05-25T07:56:11.784Z,22.04
2023-05-25T07:58:43.857Z,22.09
2023-05-25T08:01:13.562Z,22.10
2023-05-25T08:06:15.155Z,22.22
2023-05-25T08:08:45.074Z,22.21
2023-05-25T08:11:12.304Z,22.14
2023-05-25T08:13:39.544Z,22.12
2023-05-25T08:16:06.820Z,22.09
2023-05-25T08:18:34.025Z,22.19
2023-05-25T08:21:04.607Z,22.16
2023-05-25T08:23:32.065Z,22.21
2023-05-25T08:26:01.204Z,22.32
2023-05-25T08:28:28.432Z,22.33
2023-05-25T08:30:56.040Z,22.38
2023-05-25T08:33:25.149Z,22.38
2023-05-25T08:35:53.526Z,22.39
2023-05-25T08:38:25.275Z,22.41
2023-05-25T08:41:06.209Z,22.44
2023-05-25T08:43:34.147Z,22.47
2023-05-25T08:46:08.748Z,22.42
2023-05-25T08:48:41.654Z,22.53
2023-05-25T08:51:15.041Z,22.47
2023-05-25T08:53:44.021Z,22.45
2023-05-25T08:56:26.665Z,22.54
2023-05-25T08:59:14.674Z,22.53
2023-05-25T09:01:52.941Z,22.54
2023-05-25T09:04:21.459Z,22.57
2023-05-25T09:06:57.349Z,22.56
2023-05-25T09:09:36.378Z,22.63
2023-05-25T09:12:05.309Z,22.69
2023-05-25T09:14:34.787Z,22.72
2023-05-25T09:17:02.121Z,22.77
2023-05-25T09:19:29.313Z,22.82
2023-05-25T09:22:03.211Z,22.80
2023-05-25T09:24:41.681Z,22.70
2023-05-25T09:27:12.608Z,22.76
2023-05-25T09:29:42.024Z,22.81
2023-05-25T09:32:10.416Z,22.86
2023-05-25T09:34:37.446Z,22.91
2023-05-25T09:37:16.778Z,23.00
2023-05-25T09:39:45.028Z,23.03
2023-05-25T09:42:12.516Z,23.06
2023-05-25T09:44:40.686Z,23.17
2023-05-25T09:47:07.775Z,23.17
2023-05-25T09:49:35.733Z,23.26
2023-05-25T09:52:03.072Z,23.36
2023-05-25T09:54:30.371Z,23.36
2023-05-25T09:56:57.459Z,23.48
2023-05-25T09:59:24.896Z,23.39
2023-05-25T10:01:57.091Z,23.40
2023-05-25T10:04:29.573Z,23.30
2023-05-25T10:06:59.968Z,23.25
2023-05-25T10:09:31.033Z,22.74
2023-05-25T10:12:00.257Z,22.56
2023-05-25T10:17:23.663Z,22.30
2023-05-25T10:19:59.902Z,21.97
2023-05-25T10:22:44.399Z,22.01
2023-05-25T10:25:27.999Z,21.53
2023-05-25T10:27:59.804Z,21.71
2023-05-25T10:30:31.237Z,21.67
2023-05-25T10:32:58.605Z,21.50
2023-05-25T10:35:32.620Z,21.58
2023-05-25T10:38:04.704Z,21.69
2023-05-25T10:40:34.125Z,21.61
2023-05-25T10:43:02.830Z,21.43
2023-05-25T10:45:29.942Z,21.67
2023-05-25T10:47:58.289Z,21.63
2023-05-25T10:50:29.718Z,21.99
2023-05-25T10:53:02.135Z,21.90
2023-05-25T10:55:41.577Z,22.07
2023-05-25T10:58:13.335Z,22.05
2023-05-25T11:00:41.476Z,22.26
2023-05-25T11:03:09.003Z,22.01
2023-05-25T11:05:39.046Z,22.10
2023-05-25T11:08:09.178Z,22.05
2023-05-25T11:10:48.640Z,21.78
2023-05-25T11:13:45.244Z,21.90
2023-05-25T11:16:27.718Z,22.02
2023-05-25T11:19:01.648Z,22.15
2023-05-25T11:21:29.226Z,22.15
2023-05-25T11:24:04.578Z,22.20
2023-05-25T11:26:34.183Z,22.21
2023-05-25T11:29:11.839Z,22.36
2023-05-25T11:31:43.313Z,22.34
2023-05-25T11:34:14.632Z,22.35
2023-05-25T11:36:42.709Z,22.44
2023-05-25T11:39:20.495Z,22.34
2023-05-25T11:41:52.587Z,22.44
2023-05-25T11:44:46.993Z,22.32
2023-05-25T11:47:19.072Z,22.41
2023-05-25T11:49:49.766Z,22.00
2023-05-25T11:52:21.488Z,22.23
2023-05-25T11:54:48.896Z,22.25
2023-05-25T11:57:22.882Z,22.31
2023-05-25T12:00:00.453Z,22.31
2023-05-25T12:02:27.731Z,21.89
2023-05-25T12:05:02.473Z,21.70
2023-05-25T12:07:31.485Z,21.91
2023-05-25T12:10:06.290Z,21.89
2023-05-25T12:12:44.550Z,21.81
2023-05-25T12:15:14.452Z,21.76
2023-05-25T12:17:43.408Z,21.59
2023-05-25T12:20:12.751Z,21.54
2023-05-25T12:22:40.800Z,21.44
2023-05-25T12:25:10.625Z,21.23
2023-05-25T12:27:39.310Z,21.29
2023-05-25T12:30:09.073Z,20.82
2023-05-25T12:32:54.840Z,21.06
2023-05-25T12:35:26.492Z,21.21
2023-05-25T12:38:13.502Z,21.29
2023-05-25T12:40:44.737Z,21.14
2023-05-25T12:43:13.404Z,21.24
2023-05-25T12:45:41.963Z,21.31
2023-05-25T12:48:09.477Z,21.11
2023-05-25T12:50:37.239Z,20.98
2023-05-25T12:53:06.880Z,20.91
2023-05-25T12:55:36.350Z,20.98
2023-05-25T12:58:05.754Z,21.27
2023-05-25T13:00:39.656Z,21.29
2023-05-25T13:03:10.247Z,21.31
2023-05-25T13:05:39.473Z,21.28
2023-05-25T13:08:07.473Z,21.37
2023-05-25T13:10:38.912Z,21.42
2023-05-25T13:13:05.959Z,21.53
2023-05-25T13:15:33.232Z,21.59
2023-05-25T13:18:00.503Z,21.62
2023-05-25T13:20:32.643Z,21.43
2023-05-25T13:23:03.020Z,21.72
2023-05-25T13:25:30.152Z,21.79
2023-05-25T13:28:00.304Z,21.69
2023-05-25T13:30:29.249Z,21.79
2023-05-25T13:32:56.365Z,21.89
2023-05-25T13:35:37.528Z,21.94
2023-05-25T13:38:05.885Z,21.89
2023-05-25T13:40:32.931Z,22.04
2023-05-25T13:43:00.207Z,21.71
2023-05-25T13:45:27.669Z,21.96
2023-05-25T13:47:54.967Z,21.93
2023-05-25T13:50:22.245Z,21.94
2023-05-25T13:52:49.657Z,21.89
2023-05-25T13:55:16.836Z,21.75
2023-05-25T13:57:44.013Z,21.79
2023-05-25T14:00:14.781Z,21.84
2023-05-25T14:02:43.301Z,21.97
2023-05-25T14:05:10.914Z,21.64
2023-05-25T14:07:40.018Z,21.79
2023-05-25T14:10:08.318Z,21.72
2023-05-25T14:12:37.099Z,21.74
2023-05-25T14:15:05.001Z,21.84
2023-05-25T14:17:32.239Z,21.76
2023-05-25T14:19:59.919Z,21.65
2023-05-25T14:22:28.087Z,21.79
2023-05-25T14:24:55.317Z,21.67
2023-05-25T14:27:24.141Z,21.58
2023-05-25T14:29:51.928Z,21.27
2023-05-25T14:32:19.620Z,21.45
2023-05-25T14:34:47.622Z,21.59
2023-05-25T14:37:14.840Z,21.60
2023-05-25T14:39:41.919Z,21.61
2023-05-25T14:42:09.075Z,21.60
2023-05-25T14:44:36.142Z,21.58
2023-05-25T14:47:03.377Z,21.56
2023-05-25T14:49:31.634Z,21.45
2023-05-25T14:51:58.916Z,21.44
2023-05-25T14:54:26.175Z,21.48
2023-05-25T14:56:53.469Z,21.44
2023-05-25T14:59:20.788Z,21.55
2023-05-25T15:01:48.080Z,21.43
2023-05-25T15:04:15.637Z,21.62
2023-05-25T15:06:42.843Z,21.61
2023-05-25T15:09:10.050Z,21.65
2023-05-25T15:11:37.122Z,21.67
2023-05-25T15:14:04.295Z,21.57
2023-05-25T15:16:31.477Z,21.56
2023-05-25T15:18:58.695Z,21.52
2023-05-25T15:21:26.796Z,21.62
2023-05-25T15:23:53.921Z,21.59
2023-05-25T15:26:24.921Z,21.62
2023-05-25T15:28:53.840Z,21.61
2023-05-25T15:31:22.393Z,21.63
2023-05-25T15:33:57.919Z,21.66
2023-05-25T15:36:25.981Z,21.61
2023-05-25T15:38:53.159Z,21.61
2023-05-25T15:41:20.358Z,21.57
2023-05-25T15:43:54.831Z,21.61
2023-05-25T15:46:24.300Z,21.60
2023-05-25T15:48:51.662Z,21.63
2023-05-25T15:51:18.837Z,21.62
2023-05-25T15:53:46.692Z,21.57
2023-05-25T15:56:13.973Z,21.56
2023-05-25T15:58:41.915Z,21.53
2023-05-25T16:01:10.088Z,21.59
2023-05-25T16:03:38.399Z,21.55
2023-05-25T16:06:05.692Z,21.64
2023-05-25T16:08:33.712Z,21.66
2023-05-25T16:11:00.848Z,21.65
2023-05-25T16:13:27.960Z,21.67
2023-05-25T16:15:55.184Z,21.68
2023-05-25T16:18:22.299Z,21.68
2023-05-25T16:20:58.689Z,21.77
2023-05-25T16:23:26.216Z,21.77
2023-05-25T16:25:53.424Z,21.80
2023-05-25T16:28:21.979Z,21.89
2023-05-25T16:30:49.132Z,21.92
2023-05-25T16:33:16.274Z,21.94
2023-05-25T16:35:44.125Z,22.01
2023-05-25T16:38:11.380Z,21.96
2023-05-25T16:40:38.574Z,22.00
2023-05-25T16:43:05.772Z,22.02
2023-05-25T16:45:33.023Z,22.04
2023-05-25T16:48:00.383Z,21.89
2023-05-25T16:50:30.508Z,22.00
2023-05-25T16:52:58.276Z,21.87
2023-05-25T16:55:25.709Z,21.90
2023-05-25T16:57:52.781Z,21.93
2023-05-25T17:00:20.187Z,21.92
2023-05-25T17:02:47.381Z,21.95
2023-05-25T17:05:14.538Z,21.95
2023-05-25T17:07:42.020Z,21.93
2023-05-25T17:10:09.659Z,21.85
2023-05-25T17:12:37.756Z,21.84
2023-05-25T17:15:05.425Z,21.90
2023-05-25T17:17:32.765Z,21.92
2023-05-25T17:20:04.329Z,21.92
2023-05-25T17:22:31.532Z,21.93
2023-05-25T17:25:01.360Z,21.95
2023-05-25T17:27:30.799Z,21.92
2023-05-25T17:29:57.929Z,21.94
2023-05-25T17:32:25.266Z,21.96
2023-05-25T17:34:52.877Z,21.88
2023-05-25T17:37:21.068Z,21.80
2023-05-25T17:39:48.542Z,21.88
2023-05-25T17:42:15.723Z,21.91
2023-05-25T17:44:43.114Z,21.96
2023-05-25T17:47:11.549Z,21.90
2023-05-25T17:49:41.702Z,21.93
2023-05-25T17:52:09.052Z,21.93
2023-05-25T17:54:36.404Z,21.91
2023-05-25T17:57:03.909Z,21.94
2023-05-25T17:59:31.352Z,21.94
2023-05-25T18:01:59.163Z,21.96
2023-05-25T18:04:26.302Z,21.97
2023-05-25T18:06:53.417Z,21.98
2023-05-25T18:09:20.665Z,21.91
2023-05-25T18:11:47.971Z,21.93
2023-05-25T18:14:17.725Z,21.93
2023-05-25T18:16:45.219Z,21.95
2023-05-25T18:19:18.292Z,21.97
2023-05-25T18:21:45.613Z,22.01
2023-05-25T18:24:12.759Z,21.96
2023-05-25T18:26:41.964Z,21.99
2023-05-25T18:29:09.882Z,22.00
2023-05-25T18:31:37.164Z,22.03
2023-05-25T18:34:05.600Z,22.04
2023-05-25T18:36:33.867Z,21.92
2023-05-25T18:39:01.134Z,21.96
2023-05-25T18:41:28.750Z,21.97
2023-05-25T18:43:56.224Z,21.89
2023-05-25T18:46:25.069Z,21.87
2023-05-25T18:48:52.452Z,21.87
2023-05-25T18:51:23.362Z,21.87
2023-05-25T18:53:50.545Z,21.86
2023-05-25T18:56:17.700Z,21.81
2023-05-25T18:58:45.453Z,21.76
2023-05-25T19:01:12.587Z,21.74
2023-05-25T19:03:39.829Z,21.70
2023-05-25T19:06:08.364Z,21.65
2023-05-25T19:08:36.610Z,21.65
2023-05-25T19:11:03.797Z,21.64
2023-05-25T19:13:31.185Z,21.57
2023-05-25T19:15:58.371Z,21.62
2023-05-25T19:18:25.574Z,21.65
2023-05-25T19:20:52.719Z,21.65
2023-05-25T19:23:19.806Z,21.65
2023-05-25T19:25:47.366Z,21.56
2023-05-25T19:28:14.765Z,21.60
2023-05-25T19:30:41.976Z,21.57
2023-05-25T19:33:09.450Z,21.59
2023-05-25T19:35:37.346Z,21.59
2023-05-25T19:38:04.675Z,21.56
2023-05-25T19:40:33.095Z,21.50
2023-05-25T19:43:00.507Z,21.50
2023-05-25T19:45:27.636Z,21.49
2023-05-25T19:47:55.416Z,21.49
2023-05-25T19:50:28.164Z,21.40
2023-05-25T19:52:55.499Z,21.47
2023-05-25T19:55:22.649Z,21.47
2023-05-25T19:57:49.920Z,21.38
2023-05-25T20:00:26.636Z,21.34
2023-05-25T20:02:55.283Z,21.39
2023-05-25T20:05:22.738Z,21.37
2023-05-25T20:07:52.681Z,21.38
2023-05-25T20:10:20.317Z,21.31
2023-05-25T20:12:48.029Z,21.40
2023-05-25T20:15:15.346Z,21.43
2023-05-25T20:17:42.442Z,21.45
2023-05-25T20:20:16.290Z,21.43
2023-05-25T20:22:43.533Z,21.48
2023-05-25T20:25:10.820Z,21.51
2023-05-25T20:27:39.830Z,21.53
2023-05-25T20:30:19.125Z,21.51
2023-05-25T20:32:49.566Z,21.52
2023-05-25T20:35:23.547Z,21.55
2023-05-25T20:37:53.525Z,21.53
2023-05-25T20:40:21.634Z,21.50
2023-05-25T20:42:53.111Z,21.54
2023-05-25T20:45:24.949Z,21.50
2023-05-25T20:51:08.618Z,21.47
2023-05-25T20:53:41.858Z,21.42
2023-05-25T20:56:09.297Z,21.46
2023-05-25T20:58:54.745Z,21.45
2023-05-25T21:01:24.832Z,21.46
2023-05-25T21:04:00.224Z,21.52
2023-05-25T21:06:43.975Z,21.55
2023-05-25T21:09:26.467Z,21.50
2023-05-25T21:12:15.596Z,21.50
2023-05-25T21:14:45.438Z,21.49
2023-05-25T21:17:17.205Z,21.44
2023-05-25T21:19:50.324Z,21.49
2023-05-25T21:22:37.593Z,21.46
2023-05-25T21:25:10.160Z,21.48
2023-05-25T21:27:40.002Z,21.48
2023-05-25T21:30:10.197Z,21.49
2023-05-25T21:32:37.516Z,21.48
2023-05-25T21:35:04.641Z,21.48
2023-05-25T21:37:32.668Z,21.47
2023-05-25T21:40:02.597Z,21.43
2023-05-25T21:42:43.525Z,21.40
2023-05-25T21:45:10.875Z,21.41
2023-05-25T21:47:41.220Z,21.38
2023-05-25T21:50:11.534Z,21.38
2023-05-25T21:52:38.758Z,21.34
2023-05-25T21:55:09.050Z,21.29
2023-05-25T21:57:38.583Z,21.29
2023-05-25T22:00:09.582Z,21.23
2023-05-25T22:02:45.520Z,21.27
2023-05-25T22:05:23.678Z,21.28
2023-05-25T22:07:56.173Z,21.28
2023-05-25T22:10:26.663Z,21.22
2023-05-25T22:13:02.394Z,21.17
2023-05-25T22:15:36.733Z,21.10
2023-05-25T22:18:06.134Z,21.10
2023-05-25T22:20:33.482Z,21.03
2023-05-25T22:23:03.724Z,20.96
2023-05-25T22:25:30.804Z,20.97
2023-05-25T22:27:57.855Z,20.99
2023-05-25T22:30:24.929Z,20.93
2023-05-25T22:32:52.046Z,20.95
2023-05-25T22:35:22.040Z,20.85
2023-05-25T22:37:49.095Z,20.88
2023-05-25T22:40:22.779Z,20.85
2023-05-25T22:42:50.566Z,20.86
2023-05-25T22:45:20.434Z,20.82
2023-05-25T22:47:48.427Z,20.80
2023-05-25T22:50:15.726Z,20.78
2023-05-25T22:52:43.379Z,20.77
2023-05-25T22:55:13.435Z,20.71
2023-05-25T22:57:40.526Z,20.73
2023-05-25T23:00:08.644Z,20.67
2023-05-25T23:02:35.745Z,20.71
2023-05-25T23:05:02.916Z,20.59
2023-05-25T23:07:29.992Z,20.66
2023-05-25T23:09:57.116Z,20.67
2023-05-25T23:12:24.192Z,20.63
2023-05-25T23:14:52.090Z,20.60
2023-05-25T23:17:21.830Z,20.56
2023-05-25T23:19:49.136Z,20.56
2023-05-25T23:22:16.488Z,20.47
2023-05-25T23:24:43.604Z,20.51
2023-05-25T23:27:10.717Z,20.55
2023-05-25T23:29:37.882Z,20.58
2023-05-25T23:32:05.395Z,20.58
2023-05-25T23:34:32.514Z,20.57
2023-05-25T23:36:59.533Z,20.56
2023-05-25T23:39:29.821Z,20.57
2023-05-25T23:41:57.507Z,20.60
2023-05-25T23:44:27.409Z,20.58
2023-05-25T23:46:54.506Z,20.58
2023-05-25T23:49:21.858Z,20.60
2023-05-25T23:51:49.007Z,20.59
2023-05-25T23:54:16.232Z,20.55
2023-05-25T23:56:43.390Z,20.52
2023-05-25T23:59:12.355Z,20.56
